createdAt,value
2018-12-08T00:01:44.806Z,98302.58
2018-12-08T00:04:10.914Z,98334.10
2018-12-08T00:06:37.153Z,98325.39
2018-12-08T00:09:04.717Z,98323.59
2018-12-08T00:11:30.903Z,98321.29
2018-12-08T00:13:57.154Z,98322.94
2018-12-08T00:16:23.427Z,98316.85
2018-12-08T00:18:49.612Z,98312.09
2018-12-08T00:21:15.882Z,98328.52
2018-12-08T00:23:42.573Z,98317.84
2018-12-08T00:26:15.766Z,98339.84
2018-12-08T00:28:41.878Z,98347.72
2018-12-08T00:31:26.808Z,98410.16
2018-12-08T00:33:53.227Z,98440.00
2018-12-08T00:36:19.334Z,98451.16
2018-12-08T00:38:45.545Z,98456.75
2018-12-08T00:41:12.521Z,98457.70
2018-12-08T00:43:39.721Z,98480.72
2018-12-08T00:46:06.773Z,98493.63
2018-12-08T00:48:32.895Z,98512.09
2018-12-08T00:51:00.633Z,98512.05
2018-12-08T00:53:26.946Z,98517.47
2018-12-08T00:55:53.239Z,98534.52
2018-12-08T00:58:19.469Z,98559.06
2018-12-08T01:00:45.721Z,98563.84
2018-12-08T01:03:12.031Z,98573.09
2018-12-08T01:05:38.276Z,98590.63
2018-12-08T01:08:04.484Z,98603.98
2018-12-08T01:10:32.277Z,98563.88
2018-12-08T01:12:58.493Z,98562.14
2018-12-08T01:15:24.843Z,98574.55
2018-12-08T01:17:51.037Z,98582.13
2018-12-08T01:20:17.162Z,98578.88
2018-12-08T01:22:43.364Z,98574.59
2018-12-08T01:25:09.598Z,98561.55
2018-12-08T01:27:35.901Z,98576.65
2018-12-08T01:30:04.636Z,98590.67
2018-12-08T01:32:30.946Z,98605.20
2018-12-08T01:34:57.779Z,98606.37
2018-12-08T01:37:23.919Z,98608.72
2018-12-08T01:39:50.094Z,98608.41
2018-12-08T01:42:16.274Z,98613.94
2018-12-08T01:44:42.441Z,98637.20
2018-12-08T01:47:08.755Z,98635.19
2018-12-08T01:49:34.879Z,98633.69
2018-12-08T01:52:01.213Z,98629.72
2018-12-08T01:54:27.490Z,98646.81
2018-12-08T01:56:53.873Z,98632.83
2018-12-08T01:59:20.070Z,98622.05
2018-12-08T02:01:46.353Z,98628.36
2018-12-08T02:04:12.460Z,98627.35
2018-12-08T02:06:38.794Z,98629.95
2018-12-08T02:09:07.388Z,98630.06
2018-12-08T02:11:34.009Z,98629.69
2018-12-08T02:14:00.262Z,98643.87
2018-12-08T02:16:26.565Z,98657.03
2018-12-08T02:18:52.791Z,98657.76
2018-12-08T02:21:19.018Z,98653.05
2018-12-08T02:23:45.229Z,98674.47
2018-12-08T02:26:12.281Z,98666.99
2018-12-08T02:28:38.374Z,98666.31
2018-12-08T02:31:04.571Z,98671.22
2018-12-08T02:33:30.779Z,98679.25
2018-12-08T02:35:56.905Z,98676.14
2018-12-08T02:38:23.245Z,98672.73
2018-12-08T02:40:50.332Z,98673.83
2018-12-08T02:43:16.549Z,98690.27
2018-12-08T02:45:42.737Z,98712.74
2018-12-08T02:48:08.864Z,98711.69
2018-12-08T02:50:35.006Z,98710.53
2018-12-08T02:53:01.143Z,98726.16
2018-12-08T02:55:27.316Z,98732.66
2018-12-08T02:57:53.518Z,98752.52
2018-12-08T03:00:19.800Z,98754.65
2018-12-08T03:02:46.544Z,98768.42
2018-12-08T03:05:12.880Z,98775.88
2018-12-08T03:07:39.226Z,98751.98
2018-12-08T03:10:06.028Z,98774.68
2018-12-08T03:12:32.273Z,98770.55
2018-12-08T03:14:58.375Z,98761.65
2018-12-08T03:17:24.700Z,98772.81
2018-12-08T03:19:50.912Z,98773.75
2018-12-08T03:22:17.904Z,98785.01
2018-12-08T03:24:44.032Z,98795.89
2018-12-08T03:27:10.278Z,98795.88
2018-12-08T03:29:36.601Z,98785.83
2018-12-08T03:32:02.951Z,98815.54
2018-12-08T03:34:29.104Z,98810.59
2018-12-08T03:36:55.225Z,98806.90
2018-12-08T03:39:21.501Z,98817.80
2018-12-08T03:41:49.229Z,98826.80
2018-12-08T03:44:15.685Z,98828.70
2018-12-08T03:46:42.023Z,98840.55
2018-12-08T03:49:08.127Z,98846.94
2018-12-08T03:51:34.413Z,98864.81
2018-12-08T03:54:00.626Z,98865.87
2018-12-08T03:56:33.911Z,98874.87
2018-12-08T03:59:00.056Z,98896.19
2018-12-08T04:01:26.385Z,98894.30
2018-12-08T04:03:52.593Z,98892.90
2018-12-08T04:06:18.899Z,98901.31
2018-12-08T04:08:45.208Z,98922.38
2018-12-08T04:11:11.559Z,98919.30
2018-12-08T04:13:37.841Z,98927.72
2018-12-08T04:16:05.039Z,98932.47
2018-12-08T04:18:31.118Z,98936.63
2018-12-08T04:20:57.465Z,98934.58
2018-12-08T04:23:23.654Z,98932.58
2018-12-08T04:25:49.828Z,98931.62
2018-12-08T04:28:16.110Z,98936.02
2018-12-08T04:30:42.354Z,98946.11
2018-12-08T04:33:08.540Z,98948.45
2018-12-08T04:35:34.830Z,98960.69
2018-12-08T04:38:01.190Z,98955.11
2018-12-08T04:40:27.294Z,98955.09
2018-12-08T04:42:53.520Z,98945.20
2018-12-08T04:45:19.764Z,98961.58
2018-12-08T04:47:46.137Z,98958.86
2018-12-08T04:50:12.261Z,98963.16
2018-12-08T04:52:38.396Z,98951.31
2018-12-08T04:55:04.923Z,98944.88
2018-12-08T04:57:31.254Z,98952.97
2018-12-08T04:59:57.380Z,98953.89
2018-12-08T05:02:23.510Z,98957.22
2018-12-08T05:04:49.935Z,98945.39
2018-12-08T05:07:16.127Z,98954.63
2018-12-08T05:09:42.365Z,98939.56
2018-12-08T05:12:08.545Z,98939.81
2018-12-08T05:14:34.764Z,98948.80
2018-12-08T05:17:01.000Z,98954.27
2018-12-08T05:19:27.305Z,98954.63
2018-12-08T05:21:53.391Z,98957.13
2018-12-08T05:24:19.606Z,98945.14
2018-12-08T05:26:47.277Z,98955.55
2018-12-08T05:29:14.079Z,98946.08
2018-12-08T05:31:40.297Z,98953.75
2018-12-08T05:34:06.501Z,98956.61
2018-12-08T05:36:32.721Z,98959.80
2018-12-08T05:38:58.908Z,98964.43
2018-12-08T05:41:32.277Z,98966.45
2018-12-08T05:43:58.607Z,98968.45
2018-12-08T05:46:24.931Z,98958.49
2018-12-08T05:48:51.107Z,98963.59
2018-12-08T05:51:17.437Z,98962.66
2018-12-08T05:53:43.599Z,98960.89
2018-12-08T05:56:09.777Z,98968.60
2018-12-08T05:58:35.879Z,98972.63
2018-12-08T06:01:02.004Z,98965.16
2018-12-08T06:03:28.446Z,98974.39
2018-12-08T06:05:54.722Z,98963.28
2018-12-08T06:08:20.946Z,98971.21
2018-12-08T06:10:47.237Z,98962.08
2018-12-08T06:13:13.452Z,98962.21
2018-12-08T06:15:39.581Z,98966.00
2018-12-08T06:18:05.796Z,98968.48
2018-12-08T06:20:32.072Z,98971.08
2018-12-08T06:22:58.198Z,98964.58
2018-12-08T06:25:26.658Z,98965.27
2018-12-08T06:28:00.508Z,98967.41
2018-12-08T06:30:26.715Z,98974.41
2018-12-08T06:32:52.812Z,98976.91
2018-12-08T06:35:19.109Z,98971.13
2018-12-08T06:37:45.330Z,98969.67
2018-12-08T06:40:11.732Z,98963.48
2018-12-08T06:42:38.032Z,98954.84
2018-12-08T06:45:04.549Z,98965.50
2018-12-08T06:47:30.880Z,98965.61
2018-12-08T06:49:57.018Z,98964.45
2018-12-08T06:52:23.323Z,98957.95
2018-12-08T06:54:49.642Z,98951.17
2018-12-08T06:57:15.754Z,98961.02
2018-12-08T06:59:41.914Z,98965.98
2018-12-08T07:02:08.374Z,98962.33
2018-12-08T07:04:34.891Z,98973.23
2018-12-08T07:07:01.046Z,98963.14
2018-12-08T07:09:27.313Z,98966.20
2018-12-08T07:11:53.592Z,98958.39
2018-12-08T07:14:19.711Z,98968.96
2018-12-08T07:16:46.004Z,98961.14
2018-12-08T07:19:12.240Z,98960.78
2018-12-08T07:21:38.759Z,98968.59
2018-12-08T07:24:05.802Z,98963.28
2018-12-08T07:26:32.121Z,98978.30
2018-12-08T07:28:58.482Z,98956.97
2018-12-08T07:31:24.819Z,98950.56
2018-12-08T07:33:50.922Z,98947.97
2018-12-08T07:36:17.305Z,98962.80
2018-12-08T07:38:43.587Z,98959.00
2018-12-08T07:41:09.792Z,98953.18
2018-12-08T07:43:36.026Z,98959.73
2018-12-08T07:46:02.289Z,98950.35
2018-12-08T07:48:28.523Z,98944.67
2018-12-08T07:50:54.871Z,98948.44
2018-12-08T07:53:21.228Z,98935.55
2018-12-08T07:55:47.541Z,98933.30
2018-12-08T07:58:13.775Z,98938.88
2018-12-08T08:00:40.117Z,98933.29
2018-12-08T08:03:06.498Z,98926.89
2018-12-08T08:05:32.866Z,98926.77
2018-12-08T08:07:59.067Z,98931.63
2018-12-08T08:10:25.302Z,98927.36
2018-12-08T08:12:51.405Z,98920.00
2018-12-08T08:15:17.643Z,98926.06
2018-12-08T08:17:43.766Z,98909.33
2018-12-08T08:20:13.748Z,98925.45
2018-12-08T08:22:40.186Z,98895.48
2018-12-08T08:25:07.225Z,98913.13
2018-12-08T08:27:33.495Z,98911.44
2018-12-08T08:32:38.227Z,98901.39
2018-12-08T08:35:05.573Z,98899.14
2018-12-08T08:37:31.969Z,98905.17
2018-12-08T08:39:58.569Z,98899.36
2018-12-08T08:42:24.837Z,98916.08
2018-12-08T08:44:51.068Z,98905.28
2018-12-08T08:47:17.166Z,98925.23
2018-12-08T08:49:43.266Z,98910.05
2018-12-08T08:52:09.354Z,98940.96
2018-12-08T08:54:35.505Z,98903.59
2018-12-08T08:57:01.813Z,98909.16
2018-12-08T08:59:28.049Z,98900.05
2018-12-08T09:01:54.330Z,98903.61
2018-12-08T09:04:20.666Z,98887.02
2018-12-08T09:06:46.973Z,98903.77
2018-12-08T09:09:13.099Z,98888.03
2018-12-08T09:11:39.195Z,98880.34
2018-12-08T09:14:13.068Z,98866.80
2018-12-08T09:16:33.965Z,98859.24
2018-12-08T09:19:00.287Z,98873.69
2018-12-08T09:21:26.387Z,98882.52
2018-12-08T09:23:52.561Z,98895.89
2018-12-08T09:26:18.749Z,98858.81
2018-12-08T09:28:44.846Z,98867.96
2018-12-08T09:31:11.904Z,98843.92
2018-12-08T09:33:38.111Z,98843.48
2018-12-08T09:36:04.393Z,98841.65
2018-12-08T09:38:30.593Z,98836.52
2018-12-08T09:40:56.933Z,98827.55
2018-12-08T09:43:23.239Z,98829.61
2018-12-08T09:45:49.438Z,98834.20
2018-12-08T09:48:15.561Z,98832.16
2018-12-08T09:50:41.685Z,98826.63
2018-12-08T09:53:14.485Z,98815.56
2018-12-08T09:55:40.831Z,98805.00
2018-12-08T09:58:07.152Z,98828.21
2018-12-08T10:00:33.485Z,98805.77
2018-12-08T10:02:59.653Z,98818.38
2018-12-08T10:05:25.969Z,98808.87
2018-12-08T10:07:52.192Z,98794.21
2018-12-08T10:10:18.518Z,98796.80
2018-12-08T10:12:44.662Z,98819.48
2018-12-08T10:15:11.008Z,98791.97
2018-12-08T10:17:37.368Z,98794.11
2018-12-08T10:20:03.736Z,98791.50
2018-12-08T10:22:29.960Z,98778.10
2018-12-08T10:24:56.050Z,98793.89
2018-12-08T10:27:22.156Z,98785.56
2018-12-08T10:29:48.229Z,98763.84
2018-12-08T10:32:14.579Z,98754.30
2018-12-08T10:34:40.854Z,98758.94
2018-12-08T10:37:07.149Z,98761.74
2018-12-08T10:39:33.436Z,98761.66
2018-12-08T10:41:59.750Z,98772.41
2018-12-08T10:44:25.962Z,98758.91
2018-12-08T10:46:52.302Z,98757.39
2018-12-08T10:49:18.457Z,98746.94
2018-12-08T10:51:44.787Z,98744.11
2018-12-08T10:54:11.090Z,98748.55
2018-12-08T10:56:37.219Z,98740.17
2018-12-08T10:59:03.398Z,98740.34
2018-12-08T11:01:31.757Z,98744.91
2018-12-08T11:03:57.993Z,98691.81
2018-12-08T11:06:24.292Z,98724.91
2018-12-08T11:08:50.551Z,98728.41
2018-12-08T11:11:16.996Z,98730.70
2018-12-08T11:13:43.301Z,98742.75
2018-12-08T11:16:09.647Z,98734.05
2018-12-08T11:18:36.101Z,98717.36
2018-12-08T11:21:02.603Z,98729.30
2018-12-08T11:23:28.730Z,98723.01
2018-12-08T11:26:01.882Z,98723.86
2018-12-08T11:28:28.032Z,98705.98
2018-12-08T11:30:54.349Z,98728.86
2018-12-08T11:33:20.573Z,98728.03
2018-12-08T11:35:46.913Z,98709.82
2018-12-08T11:38:13.233Z,98729.64
2018-12-08T11:40:39.606Z,98721.75
2018-12-08T11:43:05.809Z,98738.42
2018-12-08T11:45:32.192Z,98712.64
2018-12-08T11:47:58.461Z,98715.72
2018-12-08T11:50:24.857Z,98716.55
2018-12-08T11:52:51.265Z,98701.11
2018-12-08T11:55:17.377Z,98710.70
2018-12-08T11:57:43.485Z,98713.45
2018-12-08T12:00:09.808Z,98717.45
2018-12-08T12:02:35.919Z,98719.49
2018-12-08T12:05:02.969Z,98717.81
2018-12-08T12:07:29.209Z,98704.73
2018-12-08T12:09:55.304Z,98720.29
2018-12-08T12:12:21.514Z,98694.34
2018-12-08T12:14:47.776Z,98697.75
2018-12-08T12:17:13.973Z,98703.16
2018-12-08T12:19:40.136Z,98691.38
2018-12-08T12:22:06.464Z,98685.17
2018-12-08T12:24:32.661Z,98679.72
2018-12-08T12:26:58.942Z,98674.13
2018-12-08T12:29:25.050Z,98664.72
2018-12-08T12:31:51.297Z,98677.59
2018-12-08T12:34:17.661Z,98659.71
2018-12-08T12:36:43.975Z,98674.05
2018-12-08T12:39:10.033Z,98654.94
2018-12-08T12:41:36.142Z,98658.29
2018-12-08T12:44:02.594Z,98649.56
2018-12-08T12:46:28.686Z,98640.53
2018-12-08T12:48:54.859Z,98651.00
2018-12-08T12:51:21.229Z,98631.91
2018-12-08T12:53:47.528Z,98625.20
2018-12-08T12:56:13.728Z,98656.93
2018-12-08T12:58:39.958Z,98633.25
2018-12-08T13:01:06.263Z,98638.13
2018-12-08T13:03:32.669Z,98628.77
2018-12-08T13:05:58.880Z,98617.82
2018-12-08T13:08:24.955Z,98621.59
2018-12-08T13:10:51.193Z,98607.31
2018-12-08T13:13:17.382Z,98598.31
2018-12-08T13:15:43.606Z,98603.11
2018-12-08T13:18:09.725Z,98601.05
2018-12-08T13:20:35.857Z,98596.16
2018-12-08T13:23:01.982Z,98607.06
2018-12-08T13:25:28.117Z,98597.75
2018-12-08T13:27:54.422Z,98592.75
2018-12-08T13:30:20.778Z,98590.80
2018-12-08T13:32:46.997Z,98593.27
2018-12-08T13:35:47.453Z,98582.38
2018-12-08T13:38:13.557Z,98584.70
2018-12-08T13:40:39.730Z,98575.66
2018-12-08T13:43:05.929Z,98593.13
2018-12-08T13:45:32.073Z,98599.81
2018-12-08T13:47:58.264Z,98605.25
2018-12-08T13:50:24.480Z,98594.36
2018-12-08T13:52:50.618Z,98585.20
2018-12-08T13:55:16.924Z,98582.03
2018-12-08T13:57:43.378Z,98585.69
2018-12-08T14:00:09.668Z,98578.27
2018-12-08T14:02:36.001Z,98580.62
2018-12-08T14:05:02.617Z,98549.48
2018-12-08T14:07:29.038Z,98580.36
2018-12-08T14:09:55.350Z,98584.22
2018-12-08T14:12:21.673Z,98590.48
2018-12-08T14:14:47.782Z,98586.84
2018-12-08T14:17:14.067Z,98567.36
2018-12-08T14:19:40.351Z,98589.66
2018-12-08T14:22:06.645Z,98587.80
2018-12-08T14:24:32.753Z,98594.11
2018-12-08T14:26:58.997Z,98578.59
2018-12-08T14:29:26.176Z,98580.05
2018-12-08T14:31:52.531Z,98585.19
2018-12-08T14:34:19.033Z,98579.69
2018-12-08T14:36:46.007Z,98587.59
2018-12-08T14:39:19.160Z,98580.84
2018-12-08T14:41:45.497Z,98575.68
2018-12-08T14:44:11.678Z,98575.87
2018-12-08T14:46:38.033Z,98585.25
2018-12-08T14:49:04.150Z,98572.28
2018-12-08T14:51:30.620Z,98573.88
2018-12-08T14:56:38.173Z,98580.78
2018-12-08T14:59:04.580Z,98592.66
2018-12-08T15:01:30.778Z,98593.84
2018-12-08T15:03:57.098Z,98604.30
2018-12-08T15:06:23.309Z,98599.35
2018-12-08T15:08:49.437Z,98607.12
2018-12-08T15:11:15.818Z,98608.01
2018-12-08T15:13:41.948Z,98604.45
2018-12-08T15:16:08.292Z,98610.14
2018-12-08T15:18:34.504Z,98606.34
2018-12-08T15:21:00.781Z,98612.03
2018-12-08T15:23:27.113Z,98611.02
2018-12-08T15:25:53.992Z,98601.34
2018-12-08T15:28:20.425Z,98605.80
2018-12-08T15:30:46.733Z,98599.07
2018-12-08T15:33:13.079Z,98613.63
2018-12-08T15:35:39.553Z,98580.28
2018-12-08T15:38:05.669Z,98595.22
2018-12-08T15:40:32.223Z,98593.75
2018-12-08T15:42:58.405Z,98594.06
2018-12-08T15:45:24.775Z,98619.20
2018-12-08T15:47:50.992Z,98587.31
2018-12-08T15:50:17.284Z,98591.42
2018-12-08T15:52:50.680Z,98575.59
2018-12-08T15:55:17.017Z,98589.95
2018-12-08T15:57:43.344Z,98591.84
2018-12-08T16:00:11.895Z,98581.92
2018-12-08T16:02:38.236Z,98591.72
2018-12-08T16:05:08.617Z,98590.98
2018-12-08T16:07:35.329Z,98586.49
2018-12-08T16:10:02.585Z,98591.73
2018-12-08T16:12:28.865Z,98587.75
2018-12-08T16:14:55.228Z,98599.17
2018-12-08T16:17:21.410Z,98587.18
2018-12-08T16:19:47.620Z,98583.80
2018-12-08T16:22:13.968Z,98598.80
2018-12-08T16:24:40.561Z,98595.86
2018-12-08T16:27:06.920Z,98589.03
2018-12-08T16:29:33.108Z,98593.30
2018-12-08T16:31:59.219Z,98599.05
2018-12-08T16:34:25.457Z,98587.42
2018-12-08T16:36:51.683Z,98583.21
2018-12-08T16:39:17.882Z,98592.77
2018-12-08T16:41:44.075Z,98582.68
2018-12-08T16:44:10.285Z,98580.25
2018-12-08T16:46:36.522Z,98556.45
2018-12-08T16:49:02.858Z,98570.58
2018-12-08T16:51:29.171Z,98569.66
2018-12-08T16:53:57.481Z,98558.17
2018-12-08T16:56:23.673Z,98556.98
2018-12-08T16:58:49.810Z,98547.53
2018-12-08T17:01:16.119Z,98583.08
2018-12-08T17:03:42.443Z,98563.36
2018-12-08T17:06:08.725Z,98575.34
2018-12-08T17:08:34.858Z,98567.44
2018-12-08T17:11:01.184Z,98540.46
2018-12-08T17:13:27.286Z,98550.05
2018-12-08T17:15:53.378Z,98549.83
2018-12-08T17:18:19.650Z,98545.63
2018-12-08T17:20:45.858Z,98565.72
2018-12-08T17:23:12.290Z,98537.72
2018-12-08T17:25:38.594Z,98528.70
2018-12-08T17:28:04.856Z,98528.42
2018-12-08T17:30:31.062Z,98548.91
2018-12-08T17:32:57.265Z,98538.20
2018-12-08T17:35:23.588Z,98538.33
2018-12-08T17:37:50.111Z,98568.67
2018-12-08T17:40:16.471Z,98546.92
2018-12-08T17:42:42.817Z,98541.55
2018-12-08T17:45:09.009Z,98558.58
2018-12-08T17:47:35.252Z,98555.78
2018-12-08T17:50:02.158Z,98556.61
2018-12-08T17:52:28.518Z,98572.05
2018-12-08T17:54:54.827Z,98547.12
2018-12-08T17:57:20.930Z,98561.20
2018-12-08T17:59:47.140Z,98551.16
2018-12-08T18:02:13.415Z,98533.39
2018-12-08T18:04:39.726Z,98544.22
2018-12-08T18:07:06.022Z,98547.72
2018-12-08T18:09:32.306Z,98530.56
2018-12-08T18:11:58.732Z,98577.81
2018-12-08T18:14:25.059Z,98537.95
2018-12-08T18:16:51.290Z,98544.51
2018-12-08T18:19:17.590Z,98550.64
2018-12-08T18:21:43.675Z,98533.20
2018-12-08T18:24:09.903Z,98528.75
2018-12-08T18:26:36.140Z,98529.44
2018-12-08T18:29:02.611Z,98532.66
2018-12-08T18:31:28.902Z,98533.23
2018-12-08T18:33:55.174Z,98535.78
2018-12-08T18:36:21.378Z,98523.20
2018-12-08T18:38:47.804Z,98504.89
2018-12-08T18:41:14.034Z,98539.89
2018-12-08T18:43:40.234Z,98535.37
2018-12-08T18:46:06.638Z,98545.34
2018-12-08T18:48:32.964Z,98531.93
2018-12-08T18:50:59.258Z,98537.56
2018-12-08T18:53:25.398Z,98522.60
2018-12-08T18:55:51.735Z,98517.44
2018-12-08T18:58:17.854Z,98530.11
2018-12-08T19:00:44.197Z,98520.91
2018-12-08T19:03:10.561Z,98532.13
2018-12-08T19:05:43.896Z,98518.52
2018-12-08T19:08:10.253Z,98531.00
2018-12-08T19:10:36.649Z,98513.81
2018-12-08T19:13:02.955Z,98526.36
2018-12-08T19:15:29.390Z,98520.59
2018-12-08T19:17:55.626Z,98512.50
2018-12-08T19:20:21.892Z,98533.45
2018-12-08T19:22:48.252Z,98523.42
2018-12-08T19:25:14.742Z,98509.19
2018-12-08T19:27:41.061Z,98512.08
2018-12-08T19:30:07.957Z,98518.06
2018-12-08T19:32:39.818Z,98519.72
2018-12-08T19:35:06.157Z,98509.97
2018-12-08T19:37:33.162Z,98501.01
2018-12-08T19:39:59.546Z,98501.41
2018-12-08T19:42:25.773Z,98497.41
2018-12-08T19:44:52.145Z,98484.36
2018-12-08T19:47:18.352Z,98481.41
2018-12-08T19:49:45.497Z,98472.44
2018-12-08T19:52:12.513Z,98470.62
2018-12-08T19:54:39.558Z,98476.67
2018-12-08T19:57:06.606Z,98466.16
2018-12-08T19:59:32.855Z,98456.40
2018-12-08T20:01:59.051Z,98456.61
2018-12-08T20:04:25.247Z,98445.40
2018-12-08T20:06:51.491Z,98445.27
2018-12-08T20:09:17.606Z,98436.81
2018-12-08T20:11:43.942Z,98445.05
2018-12-08T20:14:10.145Z,98448.78
2018-12-08T20:16:36.296Z,98427.83
2018-12-08T20:19:03.658Z,98419.56
2018-12-08T20:21:29.966Z,98415.64
2018-12-08T20:23:56.134Z,98414.71
2018-12-08T20:26:23.085Z,98415.25
2018-12-08T20:28:49.889Z,98401.70
2018-12-08T20:31:16.010Z,98412.02
2018-12-08T20:33:42.253Z,98388.12
2018-12-08T20:36:08.415Z,98387.00
2018-12-08T20:38:34.722Z,98372.53
2018-12-08T20:41:01.117Z,98374.90
2018-12-08T20:43:27.322Z,98379.86
2018-12-08T20:45:53.632Z,98371.14
2018-12-08T20:48:19.762Z,98367.36
2018-12-08T20:50:46.104Z,98371.25
2018-12-08T20:53:12.260Z,98359.58
2018-12-08T20:55:38.673Z,98361.44
2018-12-08T20:58:04.828Z,98357.37
2018-12-08T21:00:31.070Z,98357.71
2018-12-08T21:02:57.174Z,98351.00
2018-12-08T21:05:23.363Z,98328.59
2018-12-08T21:07:49.540Z,98329.72
2018-12-08T21:10:15.687Z,98328.54
2018-12-08T21:12:42.766Z,98316.87
2018-12-08T21:15:09.105Z,98329.63
2018-12-08T21:17:35.329Z,98323.05
2018-12-08T21:20:01.568Z,98317.88
2018-12-08T21:22:27.960Z,98313.00
2018-12-08T21:24:54.143Z,98314.44
2018-12-08T21:27:20.583Z,98305.87
2018-12-08T21:29:46.698Z,98297.03
2018-12-08T21:32:13.211Z,98290.94
2018-12-08T21:34:39.503Z,98289.23
2018-12-08T21:37:05.785Z,98302.08
2018-12-08T21:39:32.158Z,98282.11
2018-12-08T21:41:58.496Z,98288.68
2018-12-08T21:44:24.721Z,98276.80
2018-12-08T21:46:51.082Z,98275.41
2018-12-08T21:49:17.251Z,98279.53
2018-12-08T21:51:43.437Z,98265.23
2018-12-08T21:54:09.636Z,98279.64
2018-12-08T21:56:36.986Z,98263.85
2018-12-08T21:59:03.431Z,98257.30
2018-12-08T22:01:29.887Z,98255.50
2018-12-08T22:03:56.270Z,98263.69
2018-12-08T22:06:22.495Z,98241.85
2018-12-08T22:08:48.830Z,98248.58
2018-12-08T22:11:15.180Z,98233.66
2018-12-08T22:13:41.686Z,98224.69
2018-12-08T22:16:08.026Z,98221.30
2018-12-08T22:18:34.408Z,98215.08
2018-12-08T22:21:02.056Z,98196.28
2018-12-08T22:23:28.213Z,98203.80
2018-12-08T22:25:55.494Z,98199.31
2018-12-08T22:28:21.591Z,98190.46
2018-12-08T22:30:48.050Z,98176.53
2018-12-08T22:33:14.278Z,98167.81
2018-12-08T22:35:40.589Z,98171.01
2018-12-08T22:38:06.797Z,98170.72
2018-12-08T22:40:33.097Z,98161.03
2018-12-08T22:42:59.405Z,98145.08
2018-12-08T22:45:25.708Z,98137.56
2018-12-08T22:47:51.933Z,98135.70
2018-12-08T22:50:18.287Z,98130.23
2018-12-08T22:52:44.516Z,98115.06
2018-12-08T22:55:10.850Z,98103.12
2018-12-08T22:57:37.063Z,98101.50
2018-12-08T23:00:14.197Z,98093.31
2018-12-08T23:02:41.377Z,98083.14
2018-12-08T23:05:07.676Z,98082.05
2018-12-08T23:07:33.940Z,98072.42
2018-12-08T23:10:00.300Z,98064.63
2018-12-08T23:12:26.440Z,98059.73
2018-12-08T23:14:52.623Z,98047.48
2018-12-08T23:17:18.757Z,98029.65
2018-12-08T23:19:45.086Z,98024.12
2018-12-08T23:22:11.330Z,98010.75
2018-12-08T23:24:38.602Z,98017.63
2018-12-08T23:27:04.838Z,98006.19
2018-12-08T23:29:31.255Z,97995.08
2018-12-08T23:31:57.388Z,97996.69
2018-12-08T23:34:23.621Z,97984.57
2018-12-08T23:36:49.835Z,97978.03
2018-12-08T23:39:16.142Z,97974.59
2018-12-08T23:41:42.268Z,97967.85
2018-12-08T23:44:08.613Z,97960.00
2018-12-08T23:46:34.834Z,97942.69
2018-12-08T23:49:01.083Z,97929.27
2018-12-08T23:51:27.333Z,97936.30
2018-12-08T23:53:53.569Z,97931.59
2018-12-08T23:56:20.705Z,97919.66
2018-12-08T23:58:46.849Z,97919.63
